Time;durP1;ratioP1;P1;durP2;ratioP2;P2;SDS_P1;SDS_P2;PMS_P1;PMS_P2;Temp;Humidity;BMP_temperature;BMP_pressure;BME280_temperature;BME280_humidity;BME280_pressure;Samples;Min_cycle;Max_cycle;Signal;HPM_P1;HPM_P2
2021/03/20 00:02:51;;;;;;;1.87;0.63;;;20.60;43.30;;;;;;10450736;28;20227;-23
2021/03/20 00:08:16;;;;;;;1.00;0.80;;;20.60;43.30;;;;;;10451504;28;20193;-20
2021/03/20 00:13:39;;;;;;;0.93;0.73;;;20.60;43.30;;;;;;10454762;28;20216;-22
2021/03/20 00:19:01;;;;;;;1.07;0.83;;;20.60;43.30;;;;;;10445408;28;20221;-23
2021/03/20 00:24:22;;;;;;;1.00;0.87;;;20.50;43.30;;;;;;10416800;28;20217;-23
2021/03/20 00:29:45;;;;;;;1.37;0.70;;;20.50;43.40;;;;;;10416322;28;20611;-22
2021/03/20 00:35:08;;;;;;;0.93;0.73;;;20.50;43.50;;;;;;10415911;28;20255;-23
2021/03/20 00:40:32;;;;;;;0.80;0.60;;;20.50;43.50;;;;;;10429239;28;20239;-24
2021/03/20 00:45:55;;;;;;;0.70;0.70;;;20.50;43.50;;;;;;10415749;28;20197;-20
2021/03/20 00:51:16;;;;;;;0.77;0.77;;;20.50;43.50;;;;;;10413774;28;20224;-24
2021/03/20 00:56:38;;;;;;;1.90;0.70;;;20.50;43.60;;;;;;10455122;28;20839;-21
2021/03/20 01:02:00;;;;;;;1.80;1.00;;;20.40;43.60;;;;;;10454971;28;20239;-23
2021/03/20 01:07:22;;;;;;;0.80;0.70;;;20.40;43.80;;;;;;10456896;28;20255;-23
2021/03/20 01:12:44;;;;;;;1.73;0.80;;;20.40;43.80;;;;;;10454838;28;20215;-23
2021/03/20 01:18:07;;;;;;;1.47;0.80;;;20.40;43.80;;;;;;10455232;28;20263;-25
2021/03/20 01:23:28;;;;;;;1.00;0.90;;;20.40;43.70;;;;;;10454221;28;20275;-26
2021/03/20 01:28:50;;;;;;;2.00;0.90;;;20.40;43.70;;;;;;10454967;28;20193;-21
2021/03/20 01:34:12;;;;;;;1.67;0.70;;;20.40;43.80;;;;;;10453183;28;20223;-23
2021/03/20 01:39:34;;;;;;;1.10;0.90;;;20.40;43.80;;;;;;10454618;28;20262;-21
2021/03/20 01:45:20;;;;;;;1.17;0.70;;;20.30;43.80;;;;;;10453899;28;20220;-24
2021/03/20 01:50:52;;;;;;;1.60;0.80;;;20.40;43.80;;;;;;10453963;28;20213;-23
2021/03/20 01:56:17;;;;;;;1.00;0.80;;;20.30;43.70;;;;;;10453963;28;20576;-24
2021/03/20 02:01:38;;;;;;;1.33;0.80;;;20.30;43.80;;;;;;10453612;28;20275;-24
2021/03/20 02:07:01;;;;;;;1.50;1.10;;;20.40;43.90;;;;;;10453985;28;20203;-23
2021/03/20 02:12:28;;;;;;;1.13;0.87;;;20.30;43.80;;;;;;10449428;28;20215;-22
2021/03/20 02:17:56;;;;;;;1.80;0.90;;;20.30;43.90;;;;;;10452617;28;20223;-22
2021/03/20 02:24:06;;;;;;;1.20;1.00;;;20.30;44.00;;;;;;10448227;28;20224;-23
2021/03/20 02:30:01;;;;;;;1.20;1.03;;;20.30;43.90;;;;;;10452358;28;20188;-22
2021/03/20 02:35:30;;;;;;;2.27;0.90;;;20.20;43.90;;;;;;10391511;28;20223;-22
2021/03/20 02:41:01;;;;;;;1.93;1.30;;;20.30;43.90;;;;;;10451336;28;20718;-22
2021/03/20 02:46:27;;;;;;;1.57;1.07;;;20.30;43.90;;;;;;10452235;28;20733;-22
2021/03/20 02:51:54;;;;;;;1.87;0.80;;;20.30;43.90;;;;;;10450612;28;20585;-23
2021/03/20 02:57:19;;;;;;;1.50;1.03;;;20.20;44.00;;;;;;10451705;28;20236;-24
2021/03/20 03:02:42;;;;;;;1.50;1.00;;;20.20;44.00;;;;;;10450831;28;20221;-22
2021/03/20 03:08:08;;;;;;;1.50;1.10;;;20.20;44.00;;;;;;10450763;28;20611;-22
2021/03/20 03:13:34;;;;;;;1.77;1.20;;;20.20;44.00;;;;;;10451295;28;20220;-22
2021/03/20 03:18:59;;;;;;;1.47;1.10;;;20.20;43.90;;;;;;10451021;28;20224;-23
2021/03/20 03:24:25;;;;;;;2.67;1.23;;;20.20;44.00;;;;;;10450817;28;20209;-21
2021/03/20 03:29:46;;;;;;;1.50;1.10;;;20.20;44.10;;;;;;10450708;28;20185;-22
2021/03/20 03:35:14;;;;;;;1.50;1.20;;;20.10;44.10;;;;;;10451372;28;20606;-21
2021/03/20 03:40:45;;;;;;;1.30;0.80;;;20.10;44.10;;;;;;10450671;28;20224;-19
2021/03/20 03:46:08;;;;;;;1.57;1.00;;;20.10;44.10;;;;;;10416750;28;20221;-22
2021/03/20 03:51:29;;;;;;;1.33;1.10;;;20.10;44.10;;;;;;10417366;28;20214;-25
2021/03/20 03:57:30;;;;;;;1.20;0.80;;;20.10;44.00;;;;;;10417585;28;20213;-23
2021/03/20 04:03:27;;;;;;;1.63;1.03;;;20.20;43.90;;;;;;10402046;22;20229;-22
2021/03/20 04:08:57;;;;;;;1.50;1.00;;;20.20;44.00;;;;;;10413972;28;20201;-22
2021/03/20 04:14:25;;;;;;;1.37;0.80;;;20.10;44.10;;;;;;10384318;28;20728;-22
2021/03/20 04:20:06;;;;;;;1.20;0.97;;;20.10;44.10;;;;;;10375804;28;20682;-22
2021/03/20 04:25:34;;;;;;;1.97;1.13;;;20.10;44.10;;;;;;10369880;28;20196;-22
2021/03/20 04:31:04;;;;;;;1.20;0.93;;;20.10;44.20;;;;;;10373842;28;20211;-22
2021/03/20 04:36:33;;;;;;;1.20;0.90;;;20.10;44.10;;;;;;10375126;28;20188;-22
2021/03/20 04:41:55;;;;;;;1.10;1.00;;;20.10;44.20;;;;;;10374779;28;20234;-22
2021/03/20 04:47:21;;;;;;;1.90;1.00;;;20.10;44.20;;;;;;10374715;28;20193;-22
2021/03/20 04:52:46;;;;;;;1.40;1.00;;;20.00;44.30;;;;;;10374049;28;20231;-22
2021/03/20 04:58:15;;;;;;;1.13;1.03;;;20.00;44.40;;;;;;10372924;28;20223;-23
2021/03/20 05:03:43;;;;;;;1.40;1.00;;;20.00;44.30;;;;;;10373583;28;20214;-22
2021/03/20 05:09:08;;;;;;;1.70;1.07;;;20.00;44.30;;;;;;10374212;28;20550;-22
2021/03/20 05:14:36;;;;;;;1.37;1.03;;;20.00;44.30;;;;;;10368796;28;20222;-22
2021/03/20 05:19:59;;;;;;;0.97;0.80;;;20.00;44.40;;;;;;10373062;28;20259;-22
2021/03/20 05:25:24;;;;;;;0.90;0.90;;;20.00;44.40;;;;;;10373649;28;20225;-22
2021/03/20 05:30:45;;;;;;;1.27;1.10;;;20.00;44.40;;;;;;10372300;28;20214;-22
2021/03/20 05:36:08;;;;;;;2.13;1.00;;;20.00;44.40;;;;;;10372610;28;20673;-22
2021/03/20 05:41:38;;;;;;;1.60;0.90;;;20.00;44.30;;;;;;10372403;28;20214;-22
2021/03/20 05:47:07;;;;;;;1.27;0.90;;;20.10;44.20;;;;;;10372334;28;20194;-22
2021/03/20 05:52:42;;;;;;;1.37;0.90;;;20.10;44.10;;;;;;10366692;28;20210;-22
2021/03/20 05:58:15;;;;;;;1.33;0.90;;;20.10;44.00;;;;;;10371996;28;20218;-22
2021/03/20 06:04:15;;;;;;;1.57;1.00;;;20.10;44.00;;;;;;10371510;28;20224;-22
2021/03/20 06:09:47;;;;;;;1.20;0.83;;;20.20;43.90;;;;;;10368047;28;20701;-22
2021/03/20 06:15:17;;;;;;;0.80;0.80;;;20.20;44.00;;;;;;10371945;28;20711;-22
2021/03/20 06:20:47;;;;;;;2.27;1.20;;;20.20;44.00;;;;;;10370894;28;20221;-22
2021/03/20 06:26:17;;;;;;;1.10;0.80;;;20.20;43.90;;;;;;10370724;28;20214;-22
2021/03/20 06:31:42;;;;;;;0.93;0.77;;;20.30;43.90;;;;;;10370825;28;20212;-22
2021/03/20 06:37:10;;;;;;;1.07;0.87;;;20.30;44.00;;;;;;10369840;28;20586;-22
2021/03/20 06:42:35;;;;;;;1.20;0.80;;;20.30;44.20;;;;;;10367373;28;20692;-21
2021/03/20 06:48:01;;;;;;;3.30;0.87;;;20.30;44.20;;;;;;10369936;28;20196;-22
2021/03/20 06:53:35;;;;;;;1.03;0.67;;;20.30;44.20;;;;;;10369187;28;20272;-23
2021/03/20 06:58:58;;;;;;;1.10;0.83;;;20.30;44.10;;;;;;10369275;28;20220;-22
2021/03/20 07:04:48;;;;;;;0.70;0.60;;;20.30;44.20;;;;;;10369345;28;20226;-22
2021/03/20 07:10:26;;;;;;;1.27;0.80;;;20.30;44.10;;;;;;10368984;28;20183;-22
2021/03/20 07:16:06;;;;;;;0.90;0.70;;;20.30;44.70;;;;;;10369376;28;20760;-22
2021/03/20 07:21:33;;;;;;;1.20;0.80;;;20.30;44.10;;;;;;10375190;28;20316;-22
2021/03/20 07:26:57;;;;;;;1.13;0.80;;;20.30;44.00;;;;;;10373649;28;20197;-22
2021/03/20 07:32:33;;;;;;;1.13;0.83;;;20.30;43.70;;;;;;10377380;28;20294;-22
2021/03/20 07:37:54;;;;;;;3.20;1.27;;;20.20;41.30;;;;;;10377634;28;20214;-22
2021/03/20 07:43:19;;;;;;;2.43;1.37;;;20.10;41.00;;;;;;10377163;28;20233;-22
2021/03/20 07:48:42;;;;;;;2.30;1.00;;;20.10;40.30;;;;;;10377101;28;20195;-22
2021/03/20 07:54:04;;;;;;;1.67;1.10;;;20.00;39.40;;;;;;10372154;28;20540;-22
2021/03/20 07:59:28;;;;;;;2.50;1.17;;;20.10;41.50;;;;;;10353540;28;20237;-21
2021/03/20 08:04:54;;;;;;;1.70;0.93;;;20.20;41.80;;;;;;10361385;28;20234;-22
2021/03/20 08:10:26;;;;;;;2.73;1.47;;;20.20;42.00;;;;;;10363703;28;20195;-22
2021/03/20 08:15:51;;;;;;;3.30;1.27;;;20.20;42.20;;;;;;10363815;28;20189;-22
2021/03/20 08:22:04;;;;;;;2.47;1.20;;;20.30;42.30;;;;;;10353009;28;20221;-21
2021/03/20 08:27:35;;;;;;;2.53;1.20;;;20.30;42.30;;;;;;10359362;28;20198;-20
2021/03/20 08:33:18;;;;;;;1.90;1.10;;;20.30;42.30;;;;;;10366367;28;20214;-22
2021/03/20 08:38:52;;;;;;;1.53;0.90;;;20.30;42.20;;;;;;10364086;28;20222;-21
2021/03/20 08:44:32;;;;;;;4.37;1.00;;;20.30;42.30;;;;;;10362514;28;20229;-24
2021/03/20 08:50:05;;;;;;;23.23;2.40;;;20.30;42.70;;;;;;10374332;28;20195;-24
2021/03/20 08:55:53;;;;;;;616.73;44.27;;;20.30;39.90;;;;;;10369611;28;20262;-21
2021/03/20 09:01:33;;;;;;;389.77;28.77;;;20.40;41.40;;;;;;10395580;28;20218;-23
2021/03/20 09:06:58;;;;;;;369.33;27.23;;;20.50;39.40;;;;;;10395938;28;20674;-22
2021/03/20 09:12:26;;;;;;;381.27;28.57;;;20.40;39.80;;;;;;10375108;28;20582;-22
2021/03/20 09:17:48;;;;;;;325.50;23.30;;;20.40;41.80;;;;;;10373375;28;20811;-22
2021/03/20 09:23:20;;;;;;;226.77;17.80;;;20.40;42.60;;;;;;10365829;28;20697;-22
2021/03/20 09:29:12;;;;;;;364.03;26.77;;;20.30;43.20;;;;;;10373276;28;20195;-21
2021/03/20 09:34:47;;;;;;;228.93;18.77;;;20.40;44.40;;;;;;10373131;28;20216;-22
2021/03/20 09:40:16;;;;;;;188.93;16.63;;;20.30;44.80;;;;;;10372797;28;20218;-22
2021/03/20 09:45:38;;;;;;;190.13;16.70;;;20.40;45.10;;;;;;10371938;28;20200;-22
2021/03/20 09:51:00;;;;;;;83.37;8.23;;;20.30;44.70;;;;;;10372584;28;20239;-24
2021/03/20 09:56:30;;;;;;;65.73;7.97;;;20.30;37.10;;;;;;10372324;28;20252;-22
2021/03/20 10:01:54;;;;;;;87.30;9.00;;;20.10;41.40;;;;;;10370506;28;20231;-22
2021/03/20 10:07:31;;;;;;;105.37;10.03;;;19.90;42.80;;;;;;10368701;28;20198;-22
2021/03/20 10:12:56;;;;;;;77.23;8.53;;;19.80;43.50;;;;;;10368297;28;20222;-22
2021/03/20 10:18:30;;;;;;;89.80;43.30;;;19.70;43.90;;;;;;10370764;28;20208;-22
2021/03/20 10:24:05;;;;;;;96.33;27.43;;;19.50;41.30;;;;;;10370991;28;20217;-22
2021/03/20 10:29:30;;;;;;;71.73;19.10;;;19.50;41.30;;;;;;10370380;28;20197;-19
2021/03/20 10:34:56;;;;;;;64.40;13.20;;;19.50;40.60;;;;;;10370204;28;20226;-22
2021/03/20 10:40:24;;;;;;;50.80;10.20;;;19.60;38.80;;;;;;10363922;28;20228;-22
2021/03/20 10:45:45;;;;;;;33.80;7.77;;;19.60;36.80;;;;;;10487143;23;21001;-21
2021/03/20 10:51:08;;;;;;;34.37;6.27;;;19.60;35.70;;;;;;10491486;28;20202;-19
2021/03/20 10:56:33;;;;;;;34.30;6.70;;;19.50;34.60;;;;;;10450196;28;20225;-23
2021/03/20 11:01:55;;;;;;;45.07;5.33;;;19.50;34.70;;;;;;10450776;28;20218;-22
2021/03/20 11:07:21;;;;;;;72.50;7.40;;;19.40;33.70;;;;;;10448466;28;20200;-23
2021/03/20 11:12:43;;;;;;;112.47;82.33;;;18.90;30.00;;;;;;10448356;28;20216;-23
2021/03/20 11:18:14;;;;;;;102.27;73.13;;;18.80;29.70;;;;;;10441697;28;20247;-25
2021/03/20 11:23:37;;;;;;;60.20;40.33;;;18.90;31.50;;;;;;10409759;28;20214;-23
2021/03/20 11:29:01;;;;;;;40.03;23.13;;;19.10;32.40;;;;;;10449306;28;20193;-20
2021/03/20 11:34:30;;;;;;;289.73;27.13;;;19.20;32.00;;;;;;10450633;28;20224;-23
2021/03/20 11:39:56;;;;;;;109.03;13.40;;;18.80;29.70;;;;;;10449281;28;20223;-22
2021/03/20 11:45:25;;;;;;;48.00;7.10;;;18.70;30.00;;;;;;10449742;28;20286;-21
2021/03/20 11:50:52;;;;;;;19.70;3.40;;;18.70;29.80;;;;;;10449032;28;20200;-21
2021/03/20 11:56:18;;;;;;;28.17;4.67;;;18.60;29.70;;;;;;10450116;28;20197;-22
2021/03/20 12:01:46;;;;;;;262.33;149.70;;;18.60;30.60;;;;;;10449139;28;20225;-22
2021/03/20 12:07:21;;;;;;;223.93;53.33;;;18.50;30.70;;;;;;10441579;28;20694;-22
2021/03/20 12:12:49;;;;;;;110.00;27.43;;;18.50;30.50;;;;;;10456947;28;20201;-23
2021/03/20 12:18:13;;;;;;;57.30;19.67;;;18.50;31.30;;;;;;10456346;28;20224;-24
2021/03/20 12:23:35;;;;;;;46.37;12.40;;;18.80;31.20;;;;;;10456362;28;20270;-19
2021/03/20 12:29:21;;;;;;;10.90;4.63;;;19.20;31.70;;;;;;10455862;28;20194;-21
2021/03/20 12:34:43;;;;;;;9.83;3.33;;;18.90;29.80;;;;;;10452624;28;20270;-20
2021/03/20 12:40:05;;;;;;;3.40;1.73;;;18.80;30.00;;;;;;10415627;28;20222;-22
2021/03/20 12:45:29;;;;;;;4.83;2.00;;;18.30;28.90;;;;;;10419504;28;20229;-21
2021/03/20 12:50:59;;;;;;;3.63;1.73;;;17.80;29.70;;;;;;10451325;28;20231;-22
2021/03/20 12:56:21;;;;;;;2.13;1.67;;;17.70;29.60;;;;;;10448983;28;20620;-22
2021/03/20 13:01:44;;;;;;;774.77;55.47;;;17.50;29.80;;;;;;10493589;28;20231;-22
2021/03/20 13:07:06;;;;;;;328.53;23.33;;;17.80;32.40;;;;;;10494522;28;20204;-22
2021/03/20 13:12:28;;;;;;;116.53;8.50;;;18.30;33.30;;;;;;10453996;28;20358;-22
2021/03/20 13:17:51;;;;;;;74.33;7.67;;;18.50;32.90;;;;;;10453546;28;20197;-22
2021/03/20 13:23:12;;;;;;;31.93;3.47;;;18.60;32.90;;;;;;10449339;28;20225;-22
2021/03/20 13:28:34;;;;;;;22.50;3.77;;;18.70;32.90;;;;;;10453974;28;20243;-22
2021/03/20 13:33:57;;;;;;;14.47;2.47;;;18.60;32.90;;;;;;10455072;28;20235;-22
2021/03/20 13:39:18;;;;;;;9.33;1.93;;;18.60;33.10;;;;;;10487147;28;20586;-19
2021/03/20 13:44:40;;;;;;;6.27;2.20;;;18.50;33.10;;;;;;10462096;28;20224;-23
2021/03/20 13:50:03;;;;;;;66.43;7.30;;;18.50;33.60;;;;;;10452704;28;20189;-22
2021/03/20 13:55:24;;;;;;;78.47;6.93;;;18.60;33.00;;;;;;10453270;28;20220;-24
2021/03/20 14:00:46;;;;;;;52.87;5.50;;;18.30;31.70;;;;;;10452673;28;20220;-23
2021/03/20 14:06:09;;;;;;;31.47;4.93;;;18.30;32.20;;;;;;10436781;28;20227;-23
2021/03/20 14:11:30;;;;;;;20.53;3.30;;;18.30;31.90;;;;;;10452257;28;20193;-23
2021/03/20 14:16:52;;;;;;;19.20;3.70;;;18.40;32.60;;;;;;10452224;28;20254;-23
2021/03/20 14:22:14;;;;;;;16.17;2.90;;;18.40;33.00;;;;;;10450910;28;20220;-22
2021/03/20 14:27:36;;;;;;;16.57;2.73;;;18.50;33.00;;;;;;10450683;28;20197;-22
2021/03/20 14:32:58;;;;;;;6.03;2.40;;;18.60;32.50;;;;;;10447668;28;20240;-22
2021/03/20 14:38:23;;;;;;;21.73;16.73;;;18.40;31.60;;;;;;10445610;28;20220;-23
2021/03/20 14:43:45;;;;;;;10.37;6.40;;;18.30;31.20;;;;;;10440747;28;20220;-22
2021/03/20 14:49:08;;;;;;;7.00;4.47;;;18.20;32.00;;;;;;10451759;28;20193;-23
2021/03/20 14:54:30;;;;;;;5.70;3.00;;;18.10;32.60;;;;;;10449710;28;20267;-23
2021/03/20 14:59:52;;;;;;;8.07;2.77;;;18.30;32.70;;;;;;10451155;28;20573;-22
2021/03/20 15:05:14;;;;;;;4.90;2.40;;;18.70;32.50;;;;;;10451447;28;20213;-22
2021/03/20 15:10:39;;;;;;;3.67;1.90;;;18.90;32.10;;;;;;10450999;28;20193;-22
2021/03/20 15:16:01;;;;;;;4.13;2.10;;;19.10;31.50;;;;;;10444467;28;20707;-22
2021/03/20 15:21:23;;;;;;;2.60;1.73;;;19.00;31.30;;;;;;10444778;28;20215;-22
2021/03/20 15:26:46;;;;;;;2.63;2.17;;;18.90;31.70;;;;;;10444358;28;20205;-22
2021/03/20 15:32:09;;;;;;;4.53;2.70;;;18.60;31.30;;;;;;10444453;28;20248;-22
2021/03/20 15:37:30;;;;;;;3.93;2.37;;;18.40;31.50;;;;;;10445068;28;20223;-22
2021/03/20 15:42:53;;;;;;;3.13;2.20;;;18.40;32.00;;;;;;10450290;28;20225;-22
2021/03/20 15:48:16;;;;;;;2.10;1.80;;;18.50;32.00;;;;;;10452107;28;20250;-22
2021/03/20 15:53:38;;;;;;;4.03;2.80;;;18.50;32.60;;;;;;10451871;28;20251;-22
2021/03/20 15:59:01;;;;;;;3.83;2.20;;;18.20;32.10;;;;;;10436387;28;20635;-22
2021/03/20 16:04:23;;;;;;;3.43;2.10;;;18.10;32.50;;;;;;10451900;28;20225;-21
2021/03/20 16:09:44;;;;;;;3.50;2.27;;;17.90;33.10;;;;;;10451762;28;20193;-21
2021/03/20 16:15:09;;;;;;;3.30;1.80;;;18.00;33.50;;;;;;10452412;28;20685;-21
2021/03/20 16:20:32;;;;;;;3.70;2.63;;;18.10;33.40;;;;;;10451613;28;20224;-23
2021/03/20 16:25:56;;;;;;;3.37;2.10;;;18.20;33.70;;;;;;10454928;28;20599;-22
2021/03/20 16:31:21;;;;;;;2.13;1.93;;;18.30;33.80;;;;;;10453939;28;20205;-19
2021/03/20 16:36:42;;;;;;;3.73;2.27;;;18.30;34.00;;;;;;10456957;28;20197;-23
2021/03/20 16:42:05;;;;;;;8.30;3.50;;;18.20;34.10;;;;;;10453701;28;20221;-22
2021/03/20 16:47:28;;;;;;;9.27;4.00;;;18.10;34.30;;;;;;10447983;22;20883;-27
2021/03/20 16:52:50;;;;;;;11.13;6.13;;;17.90;34.50;;;;;;10412008;28;20581;-19
2021/03/20 16:58:12;;;;;;;7.93;5.00;;;17.70;34.90;;;;;;10412436;28;20225;-26
2021/03/20 17:03:34;;;;;;;5.17;4.07;;;17.50;35.30;;;;;;10414362;28;20201;-25
2021/03/20 17:08:57;;;;;;;5.00;3.50;;;17.50;35.70;;;;;;10413462;28;20200;-23
2021/03/20 17:14:19;;;;;;;4.43;3.60;;;17.40;35.80;;;;;;10413330;28;20222;-23
2021/03/20 17:19:42;;;;;;;4.53;3.77;;;17.40;36.00;;;;;;10415448;28;20214;-25
2021/03/20 17:25:05;;;;;;;5.03;3.40;;;17.40;36.10;;;;;;10415076;28;20685;-25
2021/03/20 17:30:28;;;;;;;4.37;3.40;;;17.50;36.20;;;;;;10414388;28;20200;-20
2021/03/20 17:35:51;;;;;;;6.63;3.43;;;17.70;36.70;;;;;;10413370;28;20700;-26
2021/03/20 17:41:13;;;;;;;4.43;3.60;;;17.40;36.40;;;;;;10412935;28;20220;-24
2021/03/20 17:46:34;;;;;;;5.75;3.50;;;17.30;36.30;;;;;;10410009;28;20429;-26
2021/03/20 17:51:57;;;;;;;4.17;3.53;;;17.90;36.10;;;;;;10413349;28;20592;-23
2021/03/20 17:57:18;;;;;;;4.93;3.27;;;17.80;36.60;;;;;;10411379;28;20712;-22
2021/03/20 18:02:40;;;;;;;3.70;3.10;;;17.80;36.80;;;;;;10410996;28;20213;-23
2021/03/20 18:08:03;;;;;;;5.60;3.23;;;17.80;36.80;;;;;;10411537;28;20221;-24
2021/03/20 18:13:26;;;;;;;8.00;2.87;;;17.80;37.00;;;;;;10411304;28;20199;-23
2021/03/20 18:18:48;;;;;;;3.30;2.93;;;17.70;37.00;;;;;;10411563;28;20263;-24
2021/03/20 18:24:11;;;;;;;5.50;3.33;;;17.70;36.90;;;;;;10410806;28;20271;-23
2021/03/20 18:29:32;;;;;;;3.87;3.07;;;17.80;37.20;;;;;;10408744;28;20189;-23
2021/03/20 18:34:54;;;;;;;5.53;3.37;;;17.80;37.00;;;;;;10409629;28;20700;-23
2021/03/20 18:40:24;;;;;;;5.77;2.93;;;17.80;37.30;;;;;;10405550;28;20218;-25
2021/03/20 18:45:45;;;;;;;3.83;3.20;;;17.70;37.40;;;;;;10410480;28;20213;-24
2021/03/20 18:51:11;;;;;;;4.63;3.20;;;17.70;37.70;;;;;;10409717;28;20239;-22
2021/03/20 18:56:34;;;;;;;7.17;3.83;;;17.60;37.80;;;;;;10407247;28;20643;-26
2021/03/20 19:01:55;;;;;;;8.60;5.37;;;17.60;38.10;;;;;;10408275;28;20214;-22
2021/03/20 19:07:17;;;;;;;6.27;4.13;;;17.60;38.30;;;;;;10408946;28;20217;-23
2021/03/20 19:12:40;;;;;;;7.23;3.70;;;17.70;38.30;;;;;;10369972;28;20193;-25
2021/03/20 19:18:02;;;;;;;10.43;3.87;;;17.80;38.60;;;;;;10367796;28;20221;-23
2021/03/20 19:23:25;;;;;;;5.10;3.27;;;17.80;38.90;;;;;;10383375;28;20203;-23
2021/03/20 19:28:48;;;;;;;4.23;3.40;;;17.90;39.20;;;;;;10450813;28;20243;-23
2021/03/20 19:34:10;;;;;;;5.47;3.03;;;17.90;40.20;;;;;;10450215;28;20263;-23
2021/03/20 19:39:31;;;;;;;5.10;2.60;;;17.90;40.00;;;;;;10448757;28;20631;-24
2021/03/20 19:44:54;;;;;;;3.63;2.57;;;17.90;40.20;;;;;;10404227;28;20233;-24
2021/03/20 19:50:23;;;;;;;4.67;2.80;;;18.00;40.50;;;;;;10364054;28;20193;-25
2021/03/20 19:55:45;;;;;;;3.97;2.60;;;18.00;40.60;;;;;;10369962;28;20225;-25
2021/03/20 20:01:10;;;;;;;2.80;2.37;;;17.90;41.10;;;;;;10398060;28;20708;-22
2021/03/20 20:06:31;;;;;;;11.23;2.90;;;17.90;41.40;;;;;;10395865;28;20201;-19
2021/03/20 20:11:53;;;;;;;7.40;2.60;;;18.10;41.40;;;;;;10396687;28;20677;-25
2021/03/20 20:17:15;;;;;;;4.93;1.63;;;18.60;40.90;;;;;;10403562;28;20259;-28
2021/03/20 20:22:37;;;;;;;3.13;1.50;;;19.20;40.30;;;;;;10402849;28;20214;-23
2021/03/20 20:28:02;;;;;;;1.77;1.10;;;19.80;39.80;;;;;;10408261;28;20221;-26
2021/03/20 20:33:25;;;;;;;3.23;1.43;;;20.30;39.20;;;;;;10412306;28;20194;-25
2021/03/20 20:38:47;;;;;;;2.73;1.10;;;20.60;38.70;;;;;;10415156;28;20708;-28
2021/03/20 20:44:12;;;;;;;1.83;1.00;;;20.90;38.40;;;;;;10414332;28;20299;-22
2021/03/20 20:49:37;;;;;;;1.77;1.37;;;21.20;38.20;;;;;;10414645;28;20244;-23
2021/03/20 20:54:58;;;;;;;1.20;1.00;;;21.20;37.80;;;;;;10416410;28;20228;-24
2021/03/20 21:00:27;;;;;;;1.27;0.90;;;21.40;37.90;;;;;;10412427;28;20214;-24
2021/03/20 21:05:49;;;;;;;1.00;0.90;;;21.60;37.80;;;;;;10413981;28;20217;-27
2021/03/20 21:11:11;;;;;;;2.03;0.90;;;21.80;37.60;;;;;;10415015;28;20198;-22
2021/03/20 21:16:33;;;;;;;0.87;0.80;;;21.90;37.30;;;;;;10414248;28;20216;-25
2021/03/20 21:21:56;;;;;;;1.13;0.80;;;22.10;37.20;;;;;;10413719;28;20222;-26
2021/03/20 21:27:18;;;;;;;0.70;0.70;;;22.30;37.00;;;;;;10414473;28;20222;-25
2021/03/20 21:32:39;;;;;;;0.80;0.80;;;22.40;36.90;;;;;;10413234;28;20228;-25
2021/03/20 21:38:03;;;;;;;1.00;0.70;;;22.50;36.90;;;;;;10412251;28;20688;-22
2021/03/20 21:43:24;;;;;;;0.53;0.53;;;22.50;37.50;;;;;;10413677;28;20202;-24
2021/03/20 21:48:46;;;;;;;0.80;0.60;;;22.50;36.90;;;;;;10413006;28;20212;-23
2021/03/20 21:54:08;;;;;;;0.50;0.50;;;22.60;36.80;;;;;;10413755;28;20218;-24
2021/03/20 21:59:30;;;;;;;1.00;0.60;;;22.70;36.50;;;;;;10411771;28;20680;-25
2021/03/20 22:04:52;;;;;;;0.73;0.73;;;22.70;36.40;;;;;;10404340;28;20310;-23
2021/03/20 22:10:15;;;;;;;1.13;0.90;;;21.80;36.00;;;;;;10372105;28;20277;-23
2021/03/20 22:15:37;;;;;;;2.47;1.00;;;21.10;37.00;;;;;;10371823;28;20589;-25
2021/03/20 22:20:59;;;;;;;1.13;0.90;;;20.70;37.90;;;;;;10370603;28;20598;-27
2021/03/20 22:26:21;;;;;;;1.33;0.90;;;20.40;38.50;;;;;;10370519;28;20229;-23
2021/03/20 22:31:43;;;;;;;0.97;0.87;;;20.10;38.90;;;;;;10370314;28;20209;-25
2021/03/20 22:37:05;;;;;;;1.07;0.80;;;19.90;39.30;;;;;;10370227;28;20225;-23
2021/03/20 22:42:27;;;;;;;0.67;0.67;;;19.70;39.70;;;;;;10393606;28;20217;-19
2021/03/20 22:47:49;;;;;;;0.77;0.60;;;19.60;39.80;;;;;;10391347;23;20238;-23
2021/03/20 22:53:12;;;;;;;2.00;0.80;;;19.50;40.00;;;;;;10427318;28;20193;-23
2021/03/20 22:58:34;;;;;;;0.53;0.47;;;19.50;40.20;;;;;;10409704;28;20235;-23
2021/03/20 23:03:59;;;;;;;0.50;0.40;;;19.50;40.30;;;;;;10408773;28;20205;-23
2021/03/20 23:09:26;;;;;;;0.53;0.50;;;19.40;40.40;;;;;;10404393;28;20189;-24
2021/03/20 23:14:50;;;;;;;0.40;0.40;;;19.30;41.20;;;;;;10408817;28;20216;-24
2021/03/20 23:20:13;;;;;;;0.43;0.40;;;19.20;40.80;;;;;;10405260;28;20222;-22
2021/03/20 23:25:36;;;;;;;0.50;0.30;;;19.20;40.90;;;;;;10408686;28;20357;-23
2021/03/20 23:30:59;;;;;;;0.40;0.40;;;19.20;40.90;;;;;;10408836;28;20217;-23
2021/03/20 23:36:21;;;;;;;0.33;0.33;;;19.20;40.80;;;;;;10409727;28;20608;-20
2021/03/20 23:41:44;;;;;;;0.87;0.50;;;19.10;41.00;;;;;;10410312;28;20213;-22
2021/03/20 23:47:07;;;;;;;0.30;0.30;;;19.00;41.20;;;;;;10372846;28;20232;-22
2021/03/20 23:52:28;;;;;;;0.30;0.30;;;19.00;41.30;;;;;;10368864;28;20198;-22
2021/03/20 23:57:50;;;;;;;0.57;0.40;;;19.00;41.30;;;;;;10368702;28;20714;-22
